createdAt,value
2022-09-15T00:01:41.808Z,100094.04
2022-09-15T00:04:10.802Z,100093.06
2022-09-15T00:06:39.695Z,100090.79
2022-09-15T00:09:08.592Z,100087.88
2022-09-15T00:11:38.172Z,100088.96
2022-09-15T00:14:08.008Z,100087.92
2022-09-15T00:16:37.765Z,100090.52
2022-09-15T00:19:06.526Z,100095.42
2022-09-15T00:21:37.861Z,100097.27
2022-09-15T00:24:07.722Z,100096.06
2022-09-15T00:26:37.317Z,100098.56
2022-09-15T00:29:06.066Z,100093.60
2022-09-15T00:31:34.990Z,100098.70
2022-09-15T00:34:04.395Z,100094.40
2022-09-15T00:36:33.351Z,100091.89
2022-09-15T00:39:02.400Z,100092.47
2022-09-15T00:41:31.731Z,100096.47
2022-09-15T00:44:02.538Z,100091.80
2022-09-15T00:46:34.775Z,100089.92
2022-09-15T00:49:08.269Z,100090.58
2022-09-15T00:51:43.096Z,100087.18
2022-09-15T00:54:16.084Z,100083.41
2022-09-15T00:56:48.343Z,100074.39
2022-09-15T00:59:21.128Z,100080.86
2022-09-15T01:01:57.466Z,100079.20
2022-09-15T01:04:26.636Z,100076.71
2022-09-15T01:07:00.956Z,100079.04
2022-09-15T01:09:36.584Z,100087.63
2022-09-15T01:12:06.556Z,100090.34
2022-09-15T01:14:35.571Z,100091.27
2022-09-15T01:17:14.484Z,100092.55
2022-09-15T01:20:16.848Z,100091.59
2022-09-15T01:23:04.838Z,100087.11
2022-09-15T01:25:55.963Z,100083.16
2022-09-15T01:28:39.700Z,100080.66
2022-09-15T01:31:16.076Z,100078.82
2022-09-15T01:33:54.988Z,100075.73
2022-09-15T01:36:32.129Z,100071.94
2022-09-15T01:39:07.792Z,100070.02
2022-09-15T01:41:38.823Z,100067.38
2022-09-15T01:44:10.274Z,100066.61
2022-09-15T01:46:46.275Z,100064.57
2022-09-15T01:49:17.797Z,100066.05
2022-09-15T01:51:48.956Z,100062.48
2022-09-15T01:54:20.995Z,100062.36
2022-09-15T01:56:49.704Z,100057.90
2022-09-15T01:59:18.565Z,100056.70
2022-09-15T02:01:52.861Z,100052.84
2022-09-15T02:04:29.170Z,100046.25
2022-09-15T02:07:06.776Z,100041.33
2022-09-15T02:09:40.107Z,100044.48
2022-09-15T02:12:14.721Z,100043.14
2022-09-15T02:14:52.344Z,100041.28
2022-09-15T02:17:22.387Z,100037.01
2022-09-15T02:19:54.250Z,100041.52
2022-09-15T02:22:27.347Z,100039.24
2022-09-15T02:25:02.388Z,100035.63
2022-09-15T02:27:37.225Z,100033.48
2022-09-15T02:30:11.228Z,100030.20
2022-09-15T02:32:47.980Z,100018.27
2022-09-15T02:35:17.885Z,100016.74
2022-09-15T02:37:48.213Z,100019.27
2022-09-15T02:40:17.282Z,100021.29
2022-09-15T02:42:55.239Z,100028.91
2022-09-15T02:45:25.238Z,100027.80
2022-09-15T02:47:54.040Z,100029.84
2022-09-15T02:50:24.055Z,100027.95
2022-09-15T02:52:53.472Z,100033.66
2022-09-15T02:55:22.866Z,100026.67
2022-09-15T02:57:51.572Z,100024.00
2022-09-15T03:00:20.780Z,100023.58
2022-09-15T03:02:51.674Z,100024.64
2022-09-15T03:05:22.407Z,100025.55
2022-09-15T03:07:52.208Z,100026.41
2022-09-15T03:10:21.623Z,100032.62
2022-09-15T03:12:51.985Z,100029.02
2022-09-15T03:15:23.104Z,100034.23
2022-09-15T03:17:52.042Z,100040.14
2022-09-15T03:20:22.828Z,100039.85
2022-09-15T03:22:51.591Z,100040.98
2022-09-15T03:25:20.722Z,100040.42
2022-09-15T03:27:49.411Z,100038.69
2022-09-15T03:30:18.273Z,100041.77
2022-09-15T03:32:48.123Z,100037.39
2022-09-15T03:35:16.999Z,100034.03
2022-09-15T03:37:45.788Z,100029.89
2022-09-15T03:40:14.684Z,100030.13
2022-09-15T03:42:43.519Z,100030.55
2022-09-15T03:45:12.379Z,100027.82
2022-09-15T03:47:41.167Z,100026.36
2022-09-15T03:50:10.466Z,100026.63
2022-09-15T03:52:39.364Z,100021.84
2022-09-15T03:55:09.563Z,100019.27
2022-09-15T03:57:38.324Z,100017.00
2022-09-15T04:00:09.609Z,100019.16
2022-09-15T04:02:38.501Z,100017.79
2022-09-15T04:05:09.641Z,100018.29
2022-09-15T04:07:39.386Z,100017.52
2022-09-15T04:10:09.559Z,100022.27
2022-09-15T04:12:38.348Z,100020.31
2022-09-15T04:15:08.852Z,100020.03
2022-09-15T04:17:37.673Z,100020.32
2022-09-15T04:20:08.896Z,100025.16
2022-09-15T04:22:37.633Z,100020.21
2022-09-15T04:25:09.166Z,100019.16
2022-09-15T04:27:38.086Z,100012.23
2022-09-15T04:30:08.628Z,100012.55
2022-09-15T04:32:37.474Z,100018.79
2022-09-15T04:35:07.803Z,100017.95
2022-09-15T04:37:36.528Z,100010.17
2022-09-15T04:40:07.539Z,100003.98
2022-09-15T04:42:36.443Z,100002.14
2022-09-15T04:45:07.043Z,100000.94
2022-09-15T04:47:35.723Z,100000.70
2022-09-15T04:50:05.391Z,100008.96
2022-09-15T04:52:34.105Z,100011.77
2022-09-15T04:55:03.027Z,100016.33
2022-09-15T04:57:32.975Z,100023.15
2022-09-15T05:00:05.287Z,100018.71
2022-09-15T05:02:34.492Z,100013.96
2022-09-15T05:05:03.393Z,100011.16
2022-09-15T05:07:32.088Z,100019.19
2022-09-15T05:10:00.800Z,100025.70
2022-09-15T05:12:30.134Z,100028.50
2022-09-15T05:14:58.917Z,100023.98
2022-09-15T05:17:32.037Z,100029.52
2022-09-15T05:20:01.340Z,100026.57
2022-09-15T05:22:30.532Z,100030.84
2022-09-15T05:24:59.222Z,100037.36
2022-09-15T05:27:30.131Z,100038.67
2022-09-15T05:30:23.632Z,100032.81
2022-09-15T05:32:47.755Z,100033.67
2022-09-15T05:35:17.076Z,100030.56
2022-09-15T05:37:45.850Z,100036.27
2022-09-15T05:40:15.399Z,100044.70
2022-09-15T05:42:44.500Z,100046.77
2022-09-15T05:45:13.359Z,100049.86
2022-09-15T05:47:42.482Z,100052.67
2022-09-15T05:50:11.653Z,100055.85
2022-09-15T05:52:40.347Z,100054.09
2022-09-15T05:55:09.935Z,100051.13
2022-09-15T05:57:39.167Z,100054.95
2022-09-15T06:00:11.130Z,100051.02
2022-09-15T06:02:40.497Z,100049.89
2022-09-15T06:05:10.967Z,100047.42
2022-09-15T06:07:39.789Z,100053.64
2022-09-15T06:10:10.715Z,100043.94
2022-09-15T06:12:39.511Z,100036.91
2022-09-15T06:15:10.099Z,100036.55
2022-09-15T06:17:38.833Z,100030.78
2022-09-15T06:20:09.492Z,100020.38
2022-09-15T06:22:38.276Z,100021.42
2022-09-15T06:25:08.653Z,100020.47
2022-09-15T06:27:37.553Z,100016.13
2022-09-15T06:30:09.167Z,100014.83
2022-09-15T06:32:38.332Z,100009.23
2022-09-15T06:35:07.793Z,100016.83
2022-09-15T06:37:36.908Z,100006.15
2022-09-15T06:40:08.547Z,99998.98
2022-09-15T06:42:37.553Z,100004.67
2022-09-15T06:45:07.847Z,100006.02
2022-09-15T06:47:36.596Z,100004.98
2022-09-15T06:50:06.800Z,100008.19
2022-09-15T06:52:36.060Z,100006.55
2022-09-15T06:55:05.817Z,100001.84
2022-09-15T06:57:35.501Z,100003.80
2022-09-15T07:00:05.732Z,100006.02
2022-09-15T07:02:34.677Z,99999.61
2022-09-15T07:05:03.875Z,99990.69
2022-09-15T07:07:32.571Z,99996.67
2022-09-15T07:10:01.899Z,100003.23
2022-09-15T07:12:31.892Z,99998.86
2022-09-15T07:15:00.601Z,99999.09
2022-09-15T07:17:30.015Z,99997.67
2022-09-15T07:19:59.901Z,100003.90
2022-09-15T07:22:29.005Z,100010.15
2022-09-15T07:24:57.678Z,100018.68
2022-09-15T07:27:30.971Z,100015.73
2022-09-15T07:30:00.006Z,100024.02
2022-09-15T07:32:28.967Z,100027.84
2022-09-15T07:34:58.578Z,100031.98
2022-09-15T07:37:27.549Z,100029.52
2022-09-15T07:39:56.619Z,100031.20
2022-09-15T07:42:25.576Z,100027.20
2022-09-15T07:44:54.414Z,100027.58
2022-09-15T07:47:23.150Z,100026.63
2022-09-15T07:49:52.426Z,100023.52
2022-09-15T07:52:21.291Z,100026.64
2022-09-15T07:54:50.084Z,100030.63
2022-09-15T07:57:18.792Z,100030.36
2022-09-15T07:59:47.519Z,100034.25
2022-09-15T08:02:18.353Z,100034.29
2022-09-15T08:04:47.438Z,100036.31
2022-09-15T08:07:16.217Z,100048.98
2022-09-15T08:09:45.348Z,100044.50
2022-09-15T08:12:14.087Z,100046.67
2022-09-15T08:14:42.855Z,100041.03
2022-09-15T08:17:11.895Z,100046.02
2022-09-15T08:19:40.814Z,100039.98
2022-09-15T08:22:09.637Z,100041.17
2022-09-15T08:24:38.475Z,100047.35
2022-09-15T08:27:07.317Z,100043.92
2022-09-15T08:29:36.253Z,100040.55
2022-09-15T08:32:05.235Z,100031.36
2022-09-15T08:34:36.764Z,100032.73
2022-09-15T08:37:08.128Z,100022.96
2022-09-15T08:39:36.860Z,100025.05
2022-09-15T08:42:07.322Z,100020.64
2022-09-15T08:44:41.948Z,100018.13
2022-09-15T08:47:16.765Z,100017.35
2022-09-15T08:49:55.621Z,100017.54
2022-09-15T08:52:30.516Z,100027.52
2022-09-15T08:55:00.935Z,100020.27
2022-09-15T08:57:29.665Z,100021.48
2022-09-15T08:59:59.467Z,100018.73
2022-09-15T09:02:46.853Z,100011.52
2022-09-15T09:05:30.071Z,100006.44
2022-09-15T09:08:22.051Z,100006.39
2022-09-15T09:10:55.016Z,99997.30
2022-09-15T09:13:35.691Z,99995.48
2022-09-15T09:16:34.303Z,99994.17
2022-09-15T09:19:15.444Z,99990.40
2022-09-15T09:21:48.020Z,99985.95
2022-09-15T09:24:22.754Z,99972.73
2022-09-15T09:26:55.035Z,99971.70
2022-09-15T09:29:30.575Z,99970.98
2022-09-15T09:32:01.242Z,99976.27
2022-09-15T09:34:35.246Z,99977.66
2022-09-15T09:37:10.996Z,99975.44
2022-09-15T09:39:40.487Z,99967.32
2022-09-15T09:42:15.229Z,99974.26
2022-09-15T09:44:44.612Z,99970.72
2022-09-15T09:47:13.704Z,99958.93
2022-09-15T09:49:46.998Z,99961.77
2022-09-15T09:52:33.869Z,99956.05
2022-09-15T09:55:04.250Z,99958.39
2022-09-15T09:57:40.489Z,99956.19
2022-09-15T10:00:32.535Z,99955.44
2022-09-15T10:03:11.607Z,99951.16
2022-09-15T10:05:41.116Z,99954.34
2022-09-15T10:08:16.820Z,99945.77
2022-09-15T10:10:52.991Z,99943.23
2022-09-15T10:13:22.474Z,99938.94
2022-09-15T10:15:57.095Z,99941.75
2022-09-15T10:18:33.473Z,99936.09
2022-09-15T10:21:04.735Z,99939.63
2022-09-15T10:23:34.325Z,99937.91
2022-09-15T10:26:31.393Z,99937.19
2022-09-15T10:29:15.561Z,99920.23
2022-09-15T10:31:45.795Z,99927.26
2022-09-15T10:34:32.152Z,99920.39
2022-09-15T10:37:15.167Z,99918.46
2022-09-15T10:39:54.264Z,99903.33
2022-09-15T10:42:35.805Z,99907.89
2022-09-15T10:45:18.211Z,99905.02
2022-09-15T10:48:03.588Z,99902.35
2022-09-15T10:50:39.928Z,99894.16
2022-09-15T10:53:17.210Z,99904.54
2022-09-15T10:55:56.039Z,99901.42
2022-09-15T10:58:46.258Z,99890.66
2022-09-15T11:01:41.121Z,99885.56
2022-09-15T11:04:27.841Z,99888.52
2022-09-15T11:07:03.797Z,99881.54
2022-09-15T11:09:39.035Z,99872.99
2022-09-15T11:12:27.063Z,99884.55
2022-09-15T11:15:17.684Z,99882.58
2022-09-15T11:18:01.007Z,99885.52
2022-09-15T11:20:54.584Z,99874.87
2022-09-15T11:23:32.428Z,99872.59
2022-09-15T11:26:07.322Z,99871.05
2022-09-15T11:28:37.834Z,99868.31
2022-09-15T11:31:14.347Z,99872.29
2022-09-15T11:33:49.291Z,99867.14
2022-09-15T11:36:20.391Z,99858.23
2022-09-15T11:38:55.711Z,99856.03
2022-09-15T11:41:34.041Z,99850.23
2022-09-15T11:44:17.103Z,99861.30
2022-09-15T11:47:03.120Z,99848.98
2022-09-15T11:49:36.784Z,99850.85
2022-09-15T11:52:18.308Z,99853.74
2022-09-15T11:54:54.604Z,99844.23
2022-09-15T11:57:28.815Z,99841.13
2022-09-15T12:00:03.253Z,99847.66
2022-09-15T12:02:38.722Z,99845.88
2022-09-15T12:05:15.079Z,99859.34
2022-09-15T12:07:48.505Z,99846.08
2022-09-15T12:10:21.901Z,99851.89
2022-09-15T12:12:53.325Z,99849.28
2022-09-15T12:15:26.809Z,99838.77
2022-09-15T12:18:06.631Z,99845.23
2022-09-15T12:20:53.260Z,99839.01
2022-09-15T12:23:29.146Z,99828.78
2022-09-15T12:26:08.520Z,99827.44
2022-09-15T12:28:50.740Z,99833.45
2022-09-15T12:31:43.528Z,99837.71
2022-09-15T12:34:54.811Z,99837.92
2022-09-15T12:37:24.940Z,99833.23
2022-09-15T12:39:53.858Z,99844.55
2022-09-15T12:42:25.355Z,99831.73
2022-09-15T12:44:56.625Z,99829.91
2022-09-15T12:47:33.068Z,99834.70
2022-09-15T12:50:08.817Z,99837.19
2022-09-15T12:52:48.407Z,99821.09
2022-09-15T12:55:20.837Z,99823.98
2022-09-15T12:57:55.534Z,99812.63
2022-09-15T13:00:32.082Z,99812.36
2022-09-15T13:03:01.907Z,99806.27
2022-09-15T13:05:54.506Z,99815.80
2022-09-15T13:08:49.194Z,99814.74
2022-09-15T13:11:23.527Z,99806.95
2022-09-15T13:13:57.725Z,99810.05
2022-09-15T13:16:32.280Z,99817.20
2022-09-15T13:19:11.375Z,99810.25
2022-09-15T13:21:43.774Z,99828.33
2022-09-15T13:24:18.696Z,99819.74
2022-09-15T13:26:52.546Z,99816.69
2022-09-15T13:29:23.756Z,99820.40
2022-09-15T13:32:04.716Z,99816.35
2022-09-15T13:35:04.199Z,99832.68
2022-09-15T13:38:23.776Z,99830.30
2022-09-15T13:41:19.280Z,99828.43
2022-09-15T13:44:09.913Z,99823.45
2022-09-15T13:46:50.785Z,99824.52
2022-09-15T13:49:45.141Z,99825.64
2022-09-15T13:52:27.476Z,99820.88
2022-09-15T13:55:21.008Z,99834.33
2022-09-15T14:00:54.485Z,99831.55
2022-09-15T14:03:27.568Z,99827.73
2022-09-15T14:05:56.939Z,99827.51
2022-09-15T14:08:31.679Z,99828.33
2022-09-15T14:11:04.280Z,99831.75
2022-09-15T14:13:36.103Z,99828.84
2022-09-15T14:16:18.569Z,99829.35
2022-09-15T14:18:47.852Z,99827.15
2022-09-15T14:21:20.802Z,99831.00
2022-09-15T14:23:51.643Z,99841.97
2022-09-15T14:26:23.404Z,99847.38
2022-09-15T14:28:55.933Z,99849.33
2022-09-15T14:31:34.172Z,99850.20
2022-09-15T14:34:06.203Z,99846.45
2022-09-15T14:36:35.511Z,99844.30
2022-09-15T14:39:08.348Z,99846.20
2022-09-15T14:41:37.724Z,99842.17
2022-09-15T14:47:18.126Z,99847.97
2022-09-15T14:49:47.435Z,99848.41
2022-09-15T14:52:26.673Z,99850.33
2022-09-15T14:55:00.391Z,99855.04
2022-09-15T14:57:31.883Z,99846.55
2022-09-15T15:00:07.402Z,99844.63
2022-09-15T15:02:49.376Z,99843.41
2022-09-15T15:05:24.597Z,99843.34
2022-09-15T15:07:54.942Z,99841.42
2022-09-15T15:10:29.259Z,99842.64
2022-09-15T15:13:05.960Z,99840.37
2022-09-15T15:15:37.047Z,99844.15
2022-09-15T15:18:30.964Z,99843.09
2022-09-15T15:21:00.888Z,99845.33
2022-09-15T15:23:31.649Z,99842.50
2022-09-15T15:26:33.884Z,99840.52
2022-09-15T15:29:06.582Z,99842.09
2022-09-15T15:31:39.915Z,99839.83
2022-09-15T15:34:25.268Z,99837.55
2022-09-15T15:37:03.368Z,99845.38
2022-09-15T15:39:32.188Z,99842.75
2022-09-15T15:42:04.047Z,99845.79
2022-09-15T15:44:33.067Z,99844.84
2022-09-15T15:47:22.953Z,99847.19
2022-09-15T15:50:14.857Z,99853.30
2022-09-15T15:52:44.475Z,99856.54
2022-09-15T15:55:18.027Z,99853.34
2022-09-15T15:57:50.321Z,99850.49
2022-09-15T16:00:22.579Z,99842.14
2022-09-15T16:02:52.653Z,99837.31
2022-09-15T16:05:25.405Z,99832.05
2022-09-15T16:07:56.598Z,99833.04
2022-09-15T16:10:30.086Z,99833.11
2022-09-15T16:12:59.055Z,99831.80
2022-09-15T16:15:28.063Z,99834.96
2022-09-15T16:17:57.014Z,99828.61
2022-09-15T16:20:27.791Z,99827.99
2022-09-15T16:22:56.510Z,99827.54
2022-09-15T16:25:33.169Z,99823.84
2022-09-15T16:28:02.628Z,99823.40
2022-09-15T16:30:31.738Z,99826.89
2022-09-15T16:33:01.494Z,99826.64
2022-09-15T16:35:37.089Z,99832.30
2022-09-15T16:38:06.312Z,99835.83
2022-09-15T16:40:36.604Z,99836.45
2022-09-15T16:43:09.576Z,99842.77
2022-09-15T16:45:40.813Z,99839.62
2022-09-15T16:48:10.365Z,99838.83
2022-09-15T16:50:45.883Z,99835.89
2022-09-15T16:53:21.962Z,99834.98
2022-09-15T16:55:51.865Z,99836.27
2022-09-15T16:58:21.708Z,99834.67
2022-09-15T17:00:52.011Z,99837.80
2022-09-15T17:03:24.378Z,99831.65
2022-09-15T17:05:54.480Z,99829.31
2022-09-15T17:08:26.671Z,99825.29
2022-09-15T17:10:57.107Z,99825.20
2022-09-15T17:13:30.285Z,99824.20
2022-09-15T17:16:00.538Z,99825.73
2022-09-15T17:18:30.013Z,99820.33
2022-09-15T17:20:59.141Z,99812.15
2022-09-15T17:23:31.115Z,99815.77
2022-09-15T17:26:02.629Z,99818.14
2022-09-15T17:28:33.435Z,99818.14
2022-09-15T17:31:04.031Z,99820.28
2022-09-15T17:33:33.556Z,99818.92
2022-09-15T17:36:03.151Z,99823.53
2022-09-15T17:38:32.318Z,99823.09
2022-09-15T17:41:01.063Z,99824.19
2022-09-15T17:43:31.100Z,99823.16
2022-09-15T17:46:00.330Z,99820.44
2022-09-15T17:48:29.178Z,99825.64
2022-09-15T17:50:57.881Z,99827.50
2022-09-15T17:53:26.986Z,99822.46
2022-09-15T17:55:57.130Z,99816.64
2022-09-15T17:58:26.180Z,99820.92
2022-09-15T18:00:55.287Z,99819.77
2022-09-15T18:03:27.372Z,99826.41
2022-09-15T18:05:58.172Z,99824.73
2022-09-15T18:08:28.312Z,99827.19
2022-09-15T18:10:57.196Z,99825.95
2022-09-15T18:13:27.704Z,99828.19
2022-09-15T18:15:57.419Z,99819.94
2022-09-15T18:18:28.450Z,99810.56
2022-09-15T18:20:57.627Z,99818.00
2022-09-15T18:23:28.801Z,99819.97
2022-09-15T18:25:58.049Z,99820.14
2022-09-15T18:28:27.491Z,99824.31
2022-09-15T18:30:56.400Z,99823.77
2022-09-15T18:33:26.356Z,99830.99
2022-09-15T18:35:58.291Z,99829.48
2022-09-15T18:38:27.540Z,99827.96
2022-09-15T18:40:57.712Z,99827.65
2022-09-15T18:43:28.011Z,99834.78
2022-09-15T18:45:59.770Z,99836.61
2022-09-15T18:48:29.504Z,99843.67
2022-09-15T18:50:58.517Z,99840.68
2022-09-15T18:53:27.291Z,99849.86
2022-09-15T18:55:56.286Z,99844.45
2022-09-15T18:58:25.432Z,99835.05
2022-09-15T19:00:59.583Z,99818.99
2022-09-15T19:03:28.353Z,99817.05
2022-09-15T19:06:01.753Z,99814.45
2022-09-15T19:08:31.051Z,99815.00
2022-09-15T19:11:00.496Z,99814.58
2022-09-15T19:13:29.768Z,99812.52
2022-09-15T19:16:03.863Z,99812.15
2022-09-15T19:18:32.836Z,99808.45
2022-09-15T19:21:07.525Z,99804.69
2022-09-15T19:23:36.759Z,99805.73
2022-09-15T19:26:07.667Z,99803.39
2022-09-15T19:28:38.613Z,99799.36
2022-09-15T19:31:08.337Z,99791.79
2022-09-15T19:33:40.187Z,99794.41
2022-09-15T19:36:28.463Z,99788.95
2022-09-15T19:38:59.752Z,99787.98
2022-09-15T19:41:28.960Z,99793.98
2022-09-15T19:44:00.160Z,99786.73
2022-09-15T19:46:29.283Z,99786.67
2022-09-15T19:48:58.779Z,99788.27
2022-09-15T19:51:27.742Z,99784.50
2022-09-15T19:53:58.946Z,99779.70
2022-09-15T19:56:28.656Z,99779.86
2022-09-15T19:58:58.939Z,99781.17
2022-09-15T20:01:29.275Z,99782.55
2022-09-15T20:03:58.434Z,99784.79
2022-09-15T20:06:32.140Z,99784.08
2022-09-15T20:09:01.499Z,99785.17
2022-09-15T20:11:31.288Z,99785.61
2022-09-15T20:14:00.708Z,99785.06
2022-09-15T20:16:29.953Z,99781.41
2022-09-15T20:18:58.704Z,99777.98
2022-09-15T20:21:49.314Z,99770.63
2022-09-15T20:24:19.694Z,99767.05
2022-09-15T20:26:49.141Z,99765.18
2022-09-15T20:29:18.592Z,99766.54
2022-09-15T20:31:50.872Z,99767.91
2022-09-15T20:34:19.727Z,99767.32
2022-09-15T20:36:48.604Z,99771.67
2022-09-15T20:39:21.564Z,99773.24
2022-09-15T20:41:50.377Z,99771.02
2022-09-15T20:44:19.270Z,99770.45
2022-09-15T20:46:48.048Z,99776.77
2022-09-15T20:49:17.605Z,99776.98
2022-09-15T20:51:46.583Z,99783.14
2022-09-15T20:54:15.511Z,99793.48
2022-09-15T20:56:44.252Z,99792.50
2022-09-15T20:59:14.888Z,99793.95
2022-09-15T21:01:43.963Z,99789.67
2022-09-15T21:04:12.692Z,99792.01
2022-09-15T21:06:41.599Z,99790.02
2022-09-15T21:09:10.593Z,99797.19
2022-09-15T21:11:42.564Z,99792.88
2022-09-15T21:14:13.285Z,99790.73
2022-09-15T21:16:42.354Z,99792.59
2022-09-15T21:19:12.126Z,99791.05
2022-09-15T21:21:40.848Z,99784.68
2022-09-15T21:24:10.024Z,99781.31
2022-09-15T21:27:00.772Z,99775.35
2022-09-15T21:29:30.703Z,99775.02
2022-09-15T21:32:00.292Z,99777.09
2022-09-15T21:34:29.076Z,99778.21
2022-09-15T21:36:57.846Z,99771.34
2022-09-15T21:39:27.109Z,99771.83
2022-09-15T21:41:55.832Z,99769.38
2022-09-15T21:44:24.625Z,99766.75
2022-09-15T21:46:54.178Z,99764.13
2022-09-15T21:49:23.136Z,99761.49
2022-09-15T21:51:52.014Z,99759.80
2022-09-15T21:54:21.173Z,99755.56
2022-09-15T21:56:50.062Z,99752.55
2022-09-15T21:59:18.844Z,99752.97
2022-09-15T22:01:48.478Z,99749.04
2022-09-15T22:04:17.396Z,99750.50
2022-09-15T22:06:46.833Z,99750.27
2022-09-15T22:09:20.657Z,99752.48
2022-09-15T22:11:49.414Z,99747.93
2022-09-15T22:14:18.913Z,99741.61
2022-09-15T22:16:47.739Z,99742.59
2022-09-15T22:19:16.443Z,99741.92
2022-09-15T22:21:45.386Z,99742.02
2022-09-15T22:24:14.249Z,99742.94
2022-09-15T22:26:43.624Z,99743.02
2022-09-15T22:29:12.673Z,99744.06
2022-09-15T22:31:41.541Z,99741.30
2022-09-15T22:34:10.286Z,99744.50
2022-09-15T22:36:39.091Z,99744.46
2022-09-15T22:39:07.964Z,99742.92
2022-09-15T22:41:39.817Z,99743.11
2022-09-15T22:44:18.539Z,99740.77
2022-09-15T22:46:49.070Z,99736.86
2022-09-15T22:49:17.879Z,99734.92
2022-09-15T22:51:47.054Z,99734.23
2022-09-15T22:54:16.305Z,99732.06
2022-09-15T22:56:46.456Z,99731.46
2022-09-15T22:59:16.489Z,99728.91
2022-09-15T23:01:45.739Z,99729.16
2022-09-15T23:04:15.096Z,99729.21
2022-09-15T23:06:43.828Z,99725.33
2022-09-15T23:09:14.602Z,99719.63
2022-09-15T23:11:43.368Z,99723.92
2022-09-15T23:14:16.237Z,99722.41
2022-09-15T23:16:45.181Z,99718.95
2022-09-15T23:19:14.374Z,99718.04
2022-09-15T23:21:43.340Z,99706.45
2022-09-15T23:24:12.125Z,99705.01
2022-09-15T23:26:40.845Z,99694.45
2022-09-15T23:29:09.953Z,99690.83
2022-09-15T23:31:38.955Z,99691.29
2022-09-15T23:34:07.793Z,99694.41
2022-09-15T23:36:36.498Z,99694.14
2022-09-15T23:39:05.341Z,99693.61
2022-09-15T23:41:34.084Z,99696.38
2022-09-15T23:44:03.495Z,99690.92
2022-09-15T23:46:32.752Z,99696.09
2022-09-15T23:49:01.780Z,99698.34
2022-09-15T23:51:31.261Z,99692.04
2022-09-15T23:54:01.415Z,99687.78
2022-09-15T23:56:30.535Z,99696.30
2022-09-15T23:58:59.485Z,99694.08
